sensor_id;sensor_type;location;lat;lon;timestamp;pressure;altitude;pressure_sealevel;temperature;humidity
13594;BME280;6449;47.666;9.160;2023-05-21T00:03:30;96516.13;;;15.13;100.00
13594;BME280;6449;47.666;9.160;2023-05-21T00:08:26;96505.59;;;15.22;100.00
13594;BME280;6449;47.666;9.160;2023-05-21T00:13:19;96507.50;;;15.11;100.00
13594;BME280;6449;47.666;9.160;2023-05-21T00:18:13;96498.75;;;15.11;100.00
13594;BME280;6449;47.666;9.160;2023-05-21T00:23:07;96498.53;;;15.04;100.00
13594;BME280;6449;47.666;9.160;2023-05-21T00:28:02;96500.84;;;15.07;100.00
13594;BME280;6449;47.666;9.160;2023-05-21T00:32:56;96488.97;;;15.03;100.00
13594;BME280;6449;47.666;9.160;2023-05-21T00:37:54;96483.69;;;14.85;100.00
13594;BME280;6449;47.666;9.160;2023-05-21T00:42:47;96479.63;;;14.91;100.00
13594;BME280;6449;47.666;9.160;2023-05-21T00:47:43;96476.47;;;14.87;100.00
13594;BME280;6449;47.666;9.160;2023-05-21T00:52:39;96471.88;;;14.89;100.00
13594;BME280;6449;47.666;9.160;2023-05-21T00:57:34;96482.13;;;14.92;100.00
13594;BME280;6449;47.666;9.160;2023-05-21T01:02:29;96467.75;;;14.87;100.00
13594;BME280;6449;47.666;9.160;2023-05-21T01:07:25;96470.00;;;14.82;100.00
13594;BME280;6449;47.666;9.160;2023-05-21T01:12:20;96468.81;;;14.58;100.00
13594;BME280;6449;47.666;9.160;2023-05-21T01:17:15;96460.38;;;14.55;100.00
13594;BME280;6449;47.666;9.160;2023-05-21T01:22:11;96453.09;;;14.75;100.00
13594;BME280;6449;47.666;9.160;2023-05-21T01:27:07;96455.47;;;14.60;100.00
13594;BME280;6449;47.666;9.160;2023-05-21T01:32:09;96447.69;;;14.58;100.00
13594;BME280;6449;47.666;9.160;2023-05-21T01:37:14;96455.09;;;14.55;100.00
13594;BME280;6449;47.666;9.160;2023-05-21T01:42:12;96461.34;;;14.72;100.00
13594;BME280;6449;47.666;9.160;2023-05-21T01:47:06;96465.50;;;14.56;100.00
13594;BME280;6449;47.666;9.160;2023-05-21T01:51:59;96456.53;;;14.49;100.00
13594;BME280;6449;47.666;9.160;2023-05-21T01:56:53;96458.03;;;14.52;100.00
13594;BME280;6449;47.666;9.160;2023-05-21T02:01:49;96457.88;;;14.53;100.00
13594;BME280;6449;47.666;9.160;2023-05-21T02:06:42;96453.81;;;14.59;100.00
13594;BME280;6449;47.666;9.160;2023-05-21T02:11:36;96454.63;;;14.24;100.00
13594;BME280;6449;47.666;9.160;2023-05-21T02:16:29;96449.41;;;14.32;100.00
13594;BME280;6449;47.666;9.160;2023-05-21T02:21:24;96447.22;;;14.27;100.00
13594;BME280;6449;47.666;9.160;2023-05-21T02:26:17;96440.84;;;14.30;100.00
13594;BME280;6449;47.666;9.160;2023-05-21T02:31:11;96433.28;;;14.35;100.00
13594;BME280;6449;47.666;9.160;2023-05-21T02:36:06;96430.13;;;14.31;100.00
13594;BME280;6449;47.666;9.160;2023-05-21T02:41:05;96444.22;;;14.40;100.00
13594;BME280;6449;47.666;9.160;2023-05-21T02:45:58;96429.25;;;14.23;100.00
13594;BME280;6449;47.666;9.160;2023-05-21T02:50:52;96425.00;;;14.30;100.00
13594;BME280;6449;47.666;9.160;2023-05-21T02:55:45;96430.94;;;14.32;100.00
13594;BME280;6449;47.666;9.160;2023-05-21T03:00:40;96432.25;;;14.28;100.00
13594;BME280;6449;47.666;9.160;2023-05-21T03:05:33;96430.13;;;14.13;100.00
13594;BME280;6449;47.666;9.160;2023-05-21T03:10:27;96433.44;;;13.98;100.00
13594;BME280;6449;47.666;9.160;2023-05-21T03:15:21;96433.22;;;14.09;100.00
13594;BME280;6449;47.666;9.160;2023-05-21T03:20:16;96435.91;;;13.99;100.00
13594;BME280;6449;47.666;9.160;2023-05-21T03:25:10;96435.56;;;13.84;100.00
13594;BME280;6449;47.666;9.160;2023-05-21T03:30:05;96427.56;;;13.58;100.00
13594;BME280;6449;47.666;9.160;2023-05-21T03:34:59;96437.38;;;13.84;100.00
13594;BME280;6449;47.666;9.160;2023-05-21T03:39:54;96436.78;;;13.90;100.00
13594;BME280;6449;47.666;9.160;2023-05-21T03:44:47;96431.03;;;14.04;100.00
13594;BME280;6449;47.666;9.160;2023-05-21T03:49:40;96436.38;;;14.12;100.00
13594;BME280;6449;47.666;9.160;2023-05-21T03:54:34;96437.22;;;14.13;100.00
13594;BME280;6449;47.666;9.160;2023-05-21T04:05:17;96432.16;;;14.20;100.00
13594;BME280;6449;47.666;9.160;2023-05-21T04:10:14;96427.41;;;14.05;100.00
13594;BME280;6449;47.666;9.160;2023-05-21T04:15:10;96430.81;;;14.15;100.00
13594;BME280;6449;47.666;9.160;2023-05-21T04:20:07;96439.47;;;14.08;100.00
13594;BME280;6449;47.666;9.160;2023-05-21T04:25:02;96441.00;;;13.83;100.00
13594;BME280;6449;47.666;9.160;2023-05-21T04:29:55;96442.91;;;13.91;100.00
13594;BME280;6449;47.666;9.160;2023-05-21T04:34:49;96458.16;;;13.69;100.00
13594;BME280;6449;47.666;9.160;2023-05-21T04:39:42;96452.28;;;13.75;100.00
13594;BME280;6449;47.666;9.160;2023-05-21T04:44:37;96453.97;;;13.94;100.00
13594;BME280;6449;47.666;9.160;2023-05-21T04:49:31;96459.28;;;13.84;100.00
13594;BME280;6449;47.666;9.160;2023-05-21T04:54:34;96462.47;;;13.88;100.00
13594;BME280;6449;47.666;9.160;2023-05-21T04:59:38;96462.38;;;14.07;100.00
13594;BME280;6449;47.666;9.160;2023-05-21T05:04:32;96464.41;;;14.13;100.00
13594;BME280;6449;47.666;9.160;2023-05-21T05:09:25;96466.22;;;14.31;100.00
13594;BME280;6449;47.666;9.160;2023-05-21T05:14:21;96470.81;;;14.47;100.00
13594;BME280;6449;47.666;9.160;2023-05-21T05:19:15;96471.97;;;14.44;100.00
13594;BME280;6449;47.666;9.160;2023-05-21T05:24:09;96474.06;;;14.58;100.00
13594;BME280;6449;47.666;9.160;2023-05-21T05:29:02;96475.16;;;14.65;100.00
13594;BME280;6449;47.666;9.160;2023-05-21T05:33:56;96476.41;;;14.79;100.00
13594;BME280;6449;47.666;9.160;2023-05-21T05:38:51;96464.56;;;14.83;100.00
13594;BME280;6449;47.666;9.160;2023-05-21T05:43:44;96466.38;;;14.83;100.00
13594;BME280;6449;47.666;9.160;2023-05-21T05:48:37;96463.50;;;14.94;100.00
13594;BME280;6449;47.666;9.160;2023-05-21T05:53:31;96468.13;;;15.18;100.00
13594;BME280;6449;47.666;9.160;2023-05-21T05:58:26;96475.63;;;15.31;100.00
13594;BME280;6449;47.666;9.160;2023-05-21T06:03:19;96464.25;;;15.12;100.00
13594;BME280;6449;47.666;9.160;2023-05-21T06:08:13;96473.34;;;15.36;100.00
13594;BME280;6449;47.666;9.160;2023-05-21T06:13:06;96474.53;;;15.50;100.00
13594;BME280;6449;47.666;9.160;2023-05-21T06:18:01;96473.63;;;15.33;100.00
13594;BME280;6449;47.666;9.160;2023-05-21T06:22:54;96476.28;;;15.33;100.00
13594;BME280;6449;47.666;9.160;2023-05-21T06:27:48;96472.81;;;15.32;100.00
13594;BME280;6449;47.666;9.160;2023-05-21T06:32:42;96475.72;;;15.55;100.00
13594;BME280;6449;47.666;9.160;2023-05-21T06:37:37;96470.22;;;15.40;100.00
13594;BME280;6449;47.666;9.160;2023-05-21T06:42:30;96468.13;;;15.52;100.00
13594;BME280;6449;47.666;9.160;2023-05-21T06:47:24;96461.97;;;15.69;100.00
13594;BME280;6449;47.666;9.160;2023-05-21T06:52:17;96468.84;;;15.96;100.00
13594;BME280;6449;47.666;9.160;2023-05-21T06:57:14;96474.94;;;15.89;100.00
13594;BME280;6449;47.666;9.160;2023-05-21T07:02:08;96478.41;;;15.89;100.00
13594;BME280;6449;47.666;9.160;2023-05-21T07:07:01;96483.44;;;16.17;100.00
13594;BME280;6449;47.666;9.160;2023-05-21T07:11:55;96493.97;;;16.67;100.00
13594;BME280;6449;47.666;9.160;2023-05-21T07:16:50;96505.41;;;16.76;100.00
13594;BME280;6449;47.666;9.160;2023-05-21T07:21:44;96515.03;;;17.01;100.00
13594;BME280;6449;47.666;9.160;2023-05-21T07:26:38;96518.00;;;17.23;100.00
13594;BME280;6449;47.666;9.160;2023-05-21T07:31:31;96520.44;;;17.41;100.00
13594;BME280;6449;47.666;9.160;2023-05-21T07:36:26;96526.72;;;17.72;100.00
13594;BME280;6449;47.666;9.160;2023-05-21T07:41:20;96535.97;;;17.85;100.00
13594;BME280;6449;47.666;9.160;2023-05-21T07:46:14;96535.09;;;17.92;100.00
13594;BME280;6449;47.666;9.160;2023-05-21T07:51:07;96525.31;;;18.01;100.00
13594;BME280;6449;47.666;9.160;2023-05-21T07:56:02;96523.50;;;18.32;100.00
13594;BME280;6449;47.666;9.160;2023-05-21T08:00:55;96529.75;;;18.40;100.00
13594;BME280;6449;47.666;9.160;2023-05-21T08:05:49;96532.03;;;18.51;100.00
13594;BME280;6449;47.666;9.160;2023-05-21T08:10:43;96533.31;;;19.09;100.00
13594;BME280;6449;47.666;9.160;2023-05-21T08:15:37;96527.81;;;19.33;100.00
13594;BME280;6449;47.666;9.160;2023-05-21T08:20:31;96523.78;;;19.52;100.00
13594;BME280;6449;47.666;9.160;2023-05-21T08:25:25;96522.63;;;19.70;100.00
13594;BME280;6449;47.666;9.160;2023-05-21T08:30:18;96528.81;;;20.00;100.00
13594;BME280;6449;47.666;9.160;2023-05-21T08:35:13;96526.97;;;20.00;100.00
13594;BME280;6449;47.666;9.160;2023-05-21T08:40:09;96528.44;;;20.03;100.00
13594;BME280;6449;47.666;9.160;2023-05-21T08:45:05;96535.47;;;20.25;100.00
13594;BME280;6449;47.666;9.160;2023-05-21T08:49:59;96537.34;;;20.61;100.00
13594;BME280;6449;47.666;9.160;2023-05-21T08:54:55;96529.00;;;20.64;100.00
13594;BME280;6449;47.666;9.160;2023-05-21T08:59:49;96538.53;;;20.73;100.00
13594;BME280;6449;47.666;9.160;2023-05-21T09:04:43;96535.47;;;20.98;100.00
13594;BME280;6449;47.666;9.160;2023-05-21T09:09:47;96537.63;;;21.09;100.00
13594;BME280;6449;47.666;9.160;2023-05-21T09:14:48;96532.50;;;21.07;100.00
13594;BME280;6449;47.666;9.160;2023-05-21T09:20:04;96532.41;;;21.37;100.00
13594;BME280;6449;47.666;9.160;2023-05-21T09:25:05;96525.31;;;21.51;100.00
13594;BME280;6449;47.666;9.160;2023-05-21T09:30:01;96521.63;;;21.80;100.00
13594;BME280;6449;47.666;9.160;2023-05-21T09:34:55;96532.78;;;21.62;100.00
13594;BME280;6449;47.666;9.160;2023-05-21T09:39:48;96529.28;;;21.89;100.00
13594;BME280;6449;47.666;9.160;2023-05-21T09:44:42;96539.88;;;21.83;100.00
13594;BME280;6449;47.666;9.160;2023-05-21T09:49:37;96530.69;;;21.85;100.00
13594;BME280;6449;47.666;9.160;2023-05-21T09:54:32;96534.63;;;21.89;100.00
13594;BME280;6449;47.666;9.160;2023-05-21T09:59:35;96534.25;;;21.99;100.00
13594;BME280;6449;47.666;9.160;2023-05-21T10:04:30;96540.59;;;21.63;100.00
13594;BME280;6449;47.666;9.160;2023-05-21T10:09:27;96536.25;;;21.34;100.00
13594;BME280;6449;47.666;9.160;2023-05-21T10:14:24;96536.91;;;21.36;100.00
13594;BME280;6449;47.666;9.160;2023-05-21T10:19:21;96542.56;;;21.55;100.00
13594;BME280;6449;47.666;9.160;2023-05-21T10:24:21;96539.38;;;21.66;100.00
13594;BME280;6449;47.666;9.160;2023-05-21T10:29:18;96538.22;;;21.75;100.00
13594;BME280;6449;47.666;9.160;2023-05-21T10:34:12;96522.59;;;22.07;100.00
13594;BME280;6449;47.666;9.160;2023-05-21T10:39:07;96511.75;;;22.15;100.00
13594;BME280;6449;47.666;9.160;2023-05-21T10:44:14;96522.97;;;22.04;100.00
13594;BME280;6449;47.666;9.160;2023-05-21T10:49:37;96525.53;;;21.84;100.00
13594;BME280;6449;47.666;9.160;2023-05-21T10:55:28;96513.91;;;21.98;100.00
13594;BME280;6449;47.666;9.160;2023-05-21T11:00:29;96519.63;;;22.23;100.00
13594;BME280;6449;47.666;9.160;2023-05-21T11:05:39;96501.22;;;22.48;93.49
13594;BME280;6449;47.666;9.160;2023-05-21T11:10:38;96501.47;;;22.60;94.81
13594;BME280;6449;47.666;9.160;2023-05-21T11:16:17;96496.56;;;22.83;87.78
13594;BME280;6449;47.666;9.160;2023-05-21T11:21:15;96492.72;;;22.92;88.73
13594;BME280;6449;47.666;9.160;2023-05-21T11:26:09;96492.94;;;23.24;83.39
13594;BME280;6449;47.666;9.160;2023-05-21T11:31:23;96494.78;;;23.30;86.86
13594;BME280;6449;47.666;9.160;2023-05-21T11:36:19;96497.84;;;23.53;89.13
13594;BME280;6449;47.666;9.160;2023-05-21T11:41:19;96495.59;;;23.77;90.84
13594;BME280;6449;47.666;9.160;2023-05-21T11:46:13;96480.59;;;23.63;85.67
13594;BME280;6449;47.666;9.160;2023-05-21T11:51:07;96481.19;;;23.58;85.52
13594;BME280;6449;47.666;9.160;2023-05-21T11:56:02;96477.91;;;23.56;86.67
13594;BME280;6449;47.666;9.160;2023-05-21T12:00:55;96462.88;;;23.55;75.48
13594;BME280;6449;47.666;9.160;2023-05-21T12:05:48;96470.25;;;23.79;76.96
13594;BME280;6449;47.666;9.160;2023-05-21T12:10:43;96473.38;;;23.63;79.21
13594;BME280;6449;47.666;9.160;2023-05-21T12:15:38;96475.00;;;23.58;77.27
13594;BME280;6449;47.666;9.160;2023-05-21T12:20:32;96471.69;;;23.75;82.05
13594;BME280;6449;47.666;9.160;2023-05-21T12:25:26;96483.63;;;23.86;83.15
13594;BME280;6449;47.666;9.160;2023-05-21T12:30:20;96476.78;;;23.97;79.29
13594;BME280;6449;47.666;9.160;2023-05-21T12:35:22;96474.78;;;23.92;81.89
13594;BME280;6449;47.666;9.160;2023-05-21T12:40:16;96469.16;;;24.00;81.03
13594;BME280;6449;47.666;9.160;2023-05-21T12:45:10;96475.16;;;23.96;81.63
13594;BME280;6449;47.666;9.160;2023-05-21T12:50:08;96464.72;;;23.81;81.60
13594;BME280;6449;47.666;9.160;2023-05-21T12:55:05;96469.25;;;23.61;81.84
13594;BME280;6449;47.666;9.160;2023-05-21T13:00:03;96471.75;;;23.36;82.15
13594;BME280;6449;47.666;9.160;2023-05-21T13:04:59;96482.25;;;23.24;89.36
13594;BME280;6449;47.666;9.160;2023-05-21T13:09:54;96473.00;;;23.07;88.33
13594;BME280;6449;47.666;9.160;2023-05-21T13:14:49;96478.13;;;23.21;85.02
13594;BME280;6449;47.666;9.160;2023-05-21T13:20:03;96480.16;;;23.46;93.94
13594;BME280;6449;47.666;9.160;2023-05-21T13:24:58;96456.06;;;23.52;76.31
13594;BME280;6449;47.666;9.160;2023-05-21T13:29:53;96452.38;;;23.47;78.05
13594;BME280;6449;47.666;9.160;2023-05-21T13:34:46;96460.16;;;23.82;83.29
13594;BME280;6449;47.666;9.160;2023-05-21T13:39:40;96450.41;;;24.00;80.21
13594;BME280;6449;47.666;9.160;2023-05-21T13:44:33;96452.53;;;23.85;74.87
13594;BME280;6449;47.666;9.160;2023-05-21T13:49:29;96463.09;;;23.67;84.67
13594;BME280;6449;47.666;9.160;2023-05-21T13:54:22;96449.53;;;23.35;72.93
13594;BME280;6449;47.666;9.160;2023-05-21T13:59:16;96444.97;;;23.42;74.43
13594;BME280;6449;47.666;9.160;2023-05-21T14:04:09;96453.19;;;23.67;80.62
13594;BME280;6449;47.666;9.160;2023-05-21T14:09:05;96453.19;;;23.74;76.12
13594;BME280;6449;47.666;9.160;2023-05-21T14:13:59;96452.50;;;23.98;83.87
13594;BME280;6449;47.666;9.160;2023-05-21T14:18:55;96456.84;;;23.93;91.27
13594;BME280;6449;47.666;9.160;2023-05-21T14:23:49;96446.75;;;23.88;86.39
13594;BME280;6449;47.666;9.160;2023-05-21T14:28:44;96446.06;;;24.06;90.81
13594;BME280;6449;47.666;9.160;2023-05-21T14:33:38;96450.84;;;23.91;90.89
13594;BME280;6449;47.666;9.160;2023-05-21T14:38:31;96458.50;;;23.81;98.19
13594;BME280;6449;47.666;9.160;2023-05-21T14:43:25;96450.28;;;23.82;96.86
13594;BME280;6449;47.666;9.160;2023-05-21T14:48:23;96452.53;;;23.92;100.00
13594;BME280;6449;47.666;9.160;2023-05-21T14:53:26;96456.41;;;23.96;100.00
13594;BME280;6449;47.666;9.160;2023-05-21T14:59:16;96444.28;;;23.80;100.00
13594;BME280;6449;47.666;9.160;2023-05-21T15:11:17;96442.84;;;23.84;99.85
13594;BME280;6449;47.666;9.160;2023-05-21T15:16:10;96448.19;;;23.97;100.00
13594;BME280;6449;47.666;9.160;2023-05-21T15:21:04;96441.94;;;24.10;100.00
13594;BME280;6449;47.666;9.160;2023-05-21T15:25:57;96449.75;;;24.18;99.60
13594;BME280;6449;47.666;9.160;2023-05-21T15:30:52;96444.91;;;24.34;96.94
13594;BME280;6449;47.666;9.160;2023-05-21T15:35:46;96438.53;;;24.28;93.42
13594;BME280;6449;47.666;9.160;2023-05-21T15:40:39;96439.00;;;24.25;100.00
13594;BME280;6449;47.666;9.160;2023-05-21T15:45:33;96438.16;;;24.24;100.00
13594;BME280;6449;47.666;9.160;2023-05-21T15:50:28;96429.88;;;24.33;92.95
13594;BME280;6449;47.666;9.160;2023-05-21T15:55:21;96431.16;;;24.23;93.82
13594;BME280;6449;47.666;9.160;2023-05-21T16:00:15;96431.78;;;24.25;98.99
13594;BME280;6449;47.666;9.160;2023-05-21T16:05:09;96430.69;;;24.33;100.00
13594;BME280;6449;47.666;9.160;2023-05-21T16:10:05;96428.47;;;24.23;100.00
13594;BME280;6449;47.666;9.160;2023-05-21T16:14:58;96433.00;;;24.29;98.76
13594;BME280;6449;47.666;9.160;2023-05-21T16:19:52;96433.50;;;24.07;100.00
13594;BME280;6449;47.666;9.160;2023-05-21T16:24:45;96428.44;;;23.92;100.00
13594;BME280;6449;47.666;9.160;2023-05-21T16:29:40;96429.28;;;23.79;100.00
13594;BME280;6449;47.666;9.160;2023-05-21T16:34:33;96421.22;;;23.92;100.00
13594;BME280;6449;47.666;9.160;2023-05-21T16:39:27;96423.50;;;23.82;100.00
13594;BME280;6449;47.666;9.160;2023-05-21T16:44:20;96425.75;;;23.92;100.00
13594;BME280;6449;47.666;9.160;2023-05-21T16:49:15;96432.78;;;23.73;100.00
13594;BME280;6449;47.666;9.160;2023-05-21T16:54:08;96436.50;;;23.59;100.00
13594;BME280;6449;47.666;9.160;2023-05-21T16:59:02;96441.66;;;23.60;100.00
13594;BME280;6449;47.666;9.160;2023-05-21T17:03:55;96434.28;;;23.49;100.00
13594;BME280;6449;47.666;9.160;2023-05-21T17:08:50;96437.78;;;23.36;100.00
13594;BME280;6449;47.666;9.160;2023-05-21T17:13:43;96439.44;;;23.24;100.00
13594;BME280;6449;47.666;9.160;2023-05-21T17:18:39;96437.59;;;23.11;100.00
13594;BME280;6449;47.666;9.160;2023-05-21T17:23:32;96448.28;;;23.05;100.00
13594;BME280;6449;47.666;9.160;2023-05-21T17:28:27;96442.13;;;22.97;100.00
13594;BME280;6449;47.666;9.160;2023-05-21T17:33:20;96455.91;;;22.88;100.00
13594;BME280;6449;47.666;9.160;2023-05-21T17:38:14;96451.72;;;22.72;100.00
13594;BME280;6449;47.666;9.160;2023-05-21T17:43:08;96460.78;;;22.71;100.00
13594;BME280;6449;47.666;9.160;2023-05-21T17:48:03;96456.25;;;22.71;100.00
13594;BME280;6449;47.666;9.160;2023-05-21T17:52:57;96456.84;;;22.60;100.00
13594;BME280;6449;47.666;9.160;2023-05-21T17:57:52;96455.16;;;22.46;100.00
13594;BME280;6449;47.666;9.160;2023-05-21T18:02:48;96453.53;;;22.38;100.00
13594;BME280;6449;47.666;9.160;2023-05-21T18:07:42;96455.75;;;22.35;100.00
13594;BME280;6449;47.666;9.160;2023-05-21T18:12:36;96456.78;;;22.34;100.00
13594;BME280;6449;47.666;9.160;2023-05-21T18:17:29;96464.16;;;22.25;100.00
13594;BME280;6449;47.666;9.160;2023-05-21T18:22:23;96459.13;;;22.09;100.00
13594;BME280;6449;47.666;9.160;2023-05-21T18:27:17;96457.00;;;21.91;100.00
13594;BME280;6449;47.666;9.160;2023-05-21T18:32:11;96463.50;;;21.75;100.00
13594;BME280;6449;47.666;9.160;2023-05-21T18:37:06;96463.81;;;21.59;100.00
13594;BME280;6449;47.666;9.160;2023-05-21T18:41:59;96463.13;;;21.50;100.00
13594;BME280;6449;47.666;9.160;2023-05-21T18:47:06;96463.28;;;21.42;100.00
13594;BME280;6449;47.666;9.160;2023-05-21T18:51:59;96465.31;;;21.40;100.00
13594;BME280;6449;47.666;9.160;2023-05-21T18:56:53;96463.97;;;21.29;100.00
13594;BME280;6449;47.666;9.160;2023-05-21T19:01:50;96469.72;;;21.26;100.00
13594;BME280;6449;47.666;9.160;2023-05-21T19:06:45;96470.63;;;21.12;100.00
13594;BME280;6449;47.666;9.160;2023-05-21T19:11:39;96484.59;;;20.92;100.00
13594;BME280;6449;47.666;9.160;2023-05-21T19:16:32;96485.25;;;20.73;100.00
13594;BME280;6449;47.666;9.160;2023-05-21T19:21:26;96495.75;;;20.60;100.00
13594;BME280;6449;47.666;9.160;2023-05-21T19:26:21;96504.22;;;20.49;100.00
13594;BME280;6449;47.666;9.160;2023-05-21T19:31:14;96509.19;;;20.37;100.00
13594;BME280;6449;47.666;9.160;2023-05-21T19:36:07;96516.16;;;20.38;100.00
13594;BME280;6449;47.666;9.160;2023-05-21T19:41:01;96522.06;;;20.33;100.00
13594;BME280;6449;47.666;9.160;2023-05-21T19:45:56;96524.91;;;20.32;100.00
13594;BME280;6449;47.666;9.160;2023-05-21T19:50:49;96537.41;;;20.17;100.00
13594;BME280;6449;47.666;9.160;2023-05-21T19:55:43;96542.47;;;20.11;100.00
13594;BME280;6449;47.666;9.160;2023-05-21T20:00:37;96544.13;;;19.98;100.00
13594;BME280;6449;47.666;9.160;2023-05-21T20:05:32;96546.41;;;20.01;100.00
13594;BME280;6449;47.666;9.160;2023-05-21T20:10:25;96554.41;;;20.01;100.00
13594;BME280;6449;47.666;9.160;2023-05-21T20:15:19;96551.38;;;20.04;100.00
13594;BME280;6449;47.666;9.160;2023-05-21T20:20:12;96556.75;;;19.81;100.00
13594;BME280;6449;47.666;9.160;2023-05-21T20:25:08;96554.50;;;19.78;100.00
13594;BME280;6449;47.666;9.160;2023-05-21T20:30:02;96556.34;;;19.54;100.00
13594;BME280;6449;47.666;9.160;2023-05-21T20:34:55;96561.38;;;19.49;100.00
13594;BME280;6449;47.666;9.160;2023-05-21T20:39:54;96556.78;;;19.43;100.00
13594;BME280;6449;47.666;9.160;2023-05-21T20:44:50;96551.09;;;19.46;100.00
13594;BME280;6449;47.666;9.160;2023-05-21T20:49:43;96556.34;;;19.54;100.00
13594;BME280;6449;47.666;9.160;2023-05-21T20:54:37;96566.47;;;19.59;100.00
13594;BME280;6449;47.666;9.160;2023-05-21T20:59:31;96560.13;;;19.60;100.00
13594;BME280;6449;47.666;9.160;2023-05-21T21:04:26;96567.94;;;19.38;100.00
13594;BME280;6449;47.666;9.160;2023-05-21T21:09:19;96570.34;;;19.33;100.00
13594;BME280;6449;47.666;9.160;2023-05-21T21:14:12;96568.78;;;19.16;100.00
13594;BME280;6449;47.666;9.160;2023-05-21T21:19:06;96570.63;;;19.16;100.00
13594;BME280;6449;47.666;9.160;2023-05-21T21:24:00;96571.75;;;19.21;100.00
13594;BME280;6449;47.666;9.160;2023-05-21T21:28:54;96575.75;;;19.17;100.00
13594;BME280;6449;47.666;9.160;2023-05-21T21:33:47;96581.44;;;19.14;100.00
13594;BME280;6449;47.666;9.160;2023-05-21T21:38:42;96583.72;;;19.17;100.00
13594;BME280;6449;47.666;9.160;2023-05-21T21:43:36;96585.75;;;18.92;100.00
13594;BME280;6449;47.666;9.160;2023-05-21T21:48:30;96590.75;;;18.87;100.00
13594;BME280;6449;47.666;9.160;2023-05-21T21:53:23;96590.16;;;19.00;100.00
13594;BME280;6449;47.666;9.160;2023-05-21T21:58:17;96577.56;;;19.02;100.00
13594;BME280;6449;47.666;9.160;2023-05-21T22:03:12;96577.91;;;18.99;100.00
13594;BME280;6449;47.666;9.160;2023-05-21T22:08:05;96580.78;;;18.89;100.00
13594;BME280;6449;47.666;9.160;2023-05-21T22:12:59;96585.22;;;18.97;100.00
13594;BME280;6449;47.666;9.160;2023-05-21T22:17:53;96592.63;;;19.01;100.00
13594;BME280;6449;47.666;9.160;2023-05-21T22:22:48;96582.63;;;18.89;100.00
13594;BME280;6449;47.666;9.160;2023-05-21T22:27:43;96583.56;;;18.96;100.00
13594;BME280;6449;47.666;9.160;2023-05-21T22:32:37;96598.06;;;18.85;100.00
13594;BME280;6449;47.666;9.160;2023-05-21T22:37:30;96590.34;;;18.75;100.00
13594;BME280;6449;47.666;9.160;2023-05-21T22:42:26;96596.69;;;18.58;100.00
13594;BME280;6449;47.666;9.160;2023-05-21T22:47:19;96597.81;;;18.32;100.00
13594;BME280;6449;47.666;9.160;2023-05-21T22:52:14;96597.31;;;18.29;100.00
13594;BME280;6449;47.666;9.160;2023-05-21T22:57:08;96598.66;;;18.25;100.00
13594;BME280;6449;47.666;9.160;2023-05-21T23:02:03;96595.19;;;18.16;100.00
13594;BME280;6449;47.666;9.160;2023-05-21T23:06:57;96605.34;;;18.13;100.00
13594;BME280;6449;47.666;9.160;2023-05-21T23:11:51;96611.38;;;17.90;100.00
13594;BME280;6449;47.666;9.160;2023-05-21T23:16:44;96600.22;;;17.95;100.00
13594;BME280;6449;47.666;9.160;2023-05-21T23:21:41;96602.41;;;17.91;100.00
13594;BME280;6449;47.666;9.160;2023-05-21T23:26:35;96610.53;;;17.65;100.00
13594;BME280;6449;47.666;9.160;2023-05-21T23:31:29;96606.56;;;17.61;100.00
13594;BME280;6449;47.666;9.160;2023-05-21T23:36:22;96603.09;;;17.69;100.00
13594;BME280;6449;47.666;9.160;2023-05-21T23:41:17;96600.44;;;17.61;100.00
13594;BME280;6449;47.666;9.160;2023-05-21T23:46:10;96607.91;;;17.49;100.00
13594;BME280;6449;47.666;9.160;2023-05-21T23:51:04;96606.94;;;17.42;100.00
13594;BME280;6449;47.666;9.160;2023-05-21T23:55:57;96605.59;;;17.38;100.00
